createdAt,value
2022-09-09T00:02:24.872Z,60.19
2022-09-09T00:04:59.321Z,60.23
2022-09-09T00:07:29.865Z,60.11
2022-09-09T00:10:02.830Z,60.00
2022-09-09T00:12:36.466Z,60.11
2022-09-09T00:15:07.047Z,59.96
2022-09-09T00:17:37.413Z,59.98
2022-09-09T00:20:08.093Z,60.00
2022-09-09T00:22:36.257Z,60.06
2022-09-09T00:25:12.434Z,59.94
2022-09-09T00:27:42.889Z,59.96
2022-09-09T00:30:17.260Z,59.84
2022-09-09T00:32:45.233Z,59.82
2022-09-09T00:35:19.058Z,60.05
2022-09-09T00:37:47.126Z,59.97
2022-09-09T00:40:24.133Z,59.97
2022-09-09T00:42:54.169Z,60.07
2022-09-09T00:45:35.240Z,59.91
2022-09-09T00:48:03.621Z,60.00
2022-09-09T00:50:47.564Z,60.15
2022-09-09T00:53:22.658Z,60.06
2022-09-09T00:55:55.960Z,60.12
2022-09-09T00:58:23.845Z,60.11
2022-09-09T01:00:54.047Z,59.93
2022-09-09T01:03:29.609Z,59.89
2022-09-09T01:06:04.010Z,60.06
2022-09-09T01:08:41.684Z,60.04
2022-09-09T01:11:13.116Z,59.77
2022-09-09T01:13:41.141Z,59.98
2022-09-09T01:16:10.723Z,59.86
2022-09-09T01:18:40.914Z,60.01
2022-09-09T01:21:11.916Z,59.96
2022-09-09T01:24:02.020Z,59.74
2022-09-09T01:26:32.438Z,60.07
2022-09-09T01:29:00.401Z,60.04
2022-09-09T01:31:29.826Z,59.89
2022-09-09T01:33:57.712Z,59.74
2022-09-09T01:36:28.963Z,59.98
2022-09-09T01:39:00.161Z,60.09
2022-09-09T01:41:28.097Z,60.04
2022-09-09T01:43:57.449Z,59.88
2022-09-09T01:46:25.420Z,59.92
2022-09-09T01:48:53.822Z,59.84
2022-09-09T01:51:21.776Z,59.99
2022-09-09T01:53:49.665Z,59.78
2022-09-09T01:56:23.636Z,59.66
2022-09-09T01:59:02.565Z,59.83
2022-09-09T02:01:38.552Z,59.72
2022-09-09T02:04:10.008Z,59.63
2022-09-09T02:06:38.642Z,59.80
2022-09-09T02:09:07.248Z,59.60
2022-09-09T02:11:35.237Z,59.82
2022-09-09T02:14:06.768Z,59.70
2022-09-09T02:16:36.792Z,60.15
2022-09-09T02:19:09.145Z,59.82
2022-09-09T02:21:37.961Z,59.96
2022-09-09T02:24:09.078Z,59.84
2022-09-09T02:26:36.954Z,59.73
2022-09-09T02:29:07.425Z,59.81
2022-09-09T02:31:36.494Z,59.55
2022-09-09T02:34:04.453Z,59.59
2022-09-09T02:36:34.487Z,59.72
2022-09-09T02:39:02.412Z,59.43
2022-09-09T02:41:32.551Z,59.41
2022-09-09T02:44:00.668Z,59.40
2022-09-09T02:46:37.429Z,59.09
2022-09-09T02:49:07.401Z,59.06
2022-09-09T02:51:39.853Z,59.45
2022-09-09T02:54:14.456Z,59.05
2022-09-09T02:56:44.360Z,59.15
2022-09-09T02:59:12.633Z,59.19
2022-09-09T03:01:42.253Z,59.41
2022-09-09T03:04:10.265Z,59.17
2022-09-09T03:06:38.847Z,59.02
2022-09-09T03:09:06.833Z,59.10
2022-09-09T03:11:34.721Z,59.06
2022-09-09T03:14:02.760Z,59.05
2022-09-09T03:16:31.065Z,59.00
2022-09-09T03:19:00.381Z,58.75
2022-09-09T03:21:28.284Z,59.02
2022-09-09T03:23:56.507Z,58.86
2022-09-09T03:26:24.471Z,59.03
2022-09-09T03:28:52.844Z,58.80
2022-09-09T03:31:20.807Z,58.93
2022-09-09T03:33:48.902Z,59.09
2022-09-09T03:36:18.846Z,58.95
2022-09-09T03:38:46.774Z,59.08
2022-09-09T03:41:14.710Z,59.01
2022-09-09T03:43:42.912Z,59.17
2022-09-09T03:46:10.932Z,58.95
2022-09-09T03:48:38.828Z,59.08
2022-09-09T03:51:07.085Z,59.06
2022-09-09T03:53:37.799Z,58.79
2022-09-09T03:56:07.635Z,58.87
2022-09-09T03:58:35.794Z,58.72
2022-09-09T04:01:05.153Z,58.64
2022-09-09T04:03:33.482Z,58.60
2022-09-09T04:06:03.193Z,58.52
2022-09-09T04:08:32.441Z,58.55
2022-09-09T04:11:03.252Z,58.59
2022-09-09T04:13:31.685Z,58.62
2022-09-09T04:16:00.549Z,58.69
2022-09-09T04:18:29.146Z,58.77
2022-09-09T04:20:58.280Z,58.78
2022-09-09T04:23:26.377Z,58.68
2022-09-09T04:25:55.076Z,58.81
2022-09-09T04:28:25.334Z,58.47
2022-09-09T04:30:53.354Z,58.43
2022-09-09T04:33:21.363Z,58.40
2022-09-09T04:35:50.127Z,58.59
2022-09-09T04:38:18.334Z,58.21
2022-09-09T04:40:46.651Z,58.39
2022-09-09T04:43:15.394Z,58.16
2022-09-09T04:45:44.806Z,58.42
2022-09-09T04:48:14.951Z,58.33
2022-09-09T04:50:42.865Z,58.31
2022-09-09T04:53:10.855Z,58.20
2022-09-09T04:55:38.771Z,58.46
2022-09-09T04:58:07.542Z,58.39
2022-09-09T05:00:37.146Z,58.30
2022-09-09T05:03:06.704Z,58.33
2022-09-09T05:05:35.169Z,58.54
2022-09-09T05:08:06.660Z,58.74
2022-09-09T05:10:34.678Z,59.34
2022-09-09T05:13:02.621Z,59.69
2022-09-09T05:15:30.790Z,60.06
2022-09-09T05:18:00.280Z,60.64
2022-09-09T05:20:29.608Z,60.82
2022-09-09T05:22:57.725Z,61.48
2022-09-09T05:25:29.318Z,61.56
2022-09-09T05:27:57.491Z,62.13
2022-09-09T05:30:27.342Z,62.09
2022-09-09T05:32:58.117Z,62.13
2022-09-09T05:35:28.753Z,62.16
2022-09-09T05:38:01.126Z,62.20
2022-09-09T05:40:29.072Z,62.38
2022-09-09T05:42:56.942Z,62.33
2022-09-09T05:45:24.949Z,62.27
2022-09-09T05:47:55.004Z,62.36
2022-09-09T05:50:23.088Z,62.26
2022-09-09T05:52:51.029Z,62.44
2022-09-09T05:55:20.388Z,62.17
2022-09-09T05:57:52.857Z,62.28
2022-09-09T06:00:21.405Z,62.63
2022-09-09T06:02:53.459Z,62.55
2022-09-09T06:05:23.988Z,62.85
2022-09-09T06:07:54.587Z,62.72
2022-09-09T06:10:27.125Z,62.59
2022-09-09T06:12:55.693Z,62.43
2022-09-09T06:15:23.943Z,62.79
2022-09-09T06:17:56.639Z,62.58
2022-09-09T06:20:24.586Z,62.66
2022-09-09T06:22:52.440Z,62.55
2022-09-09T06:25:20.464Z,62.44
2022-09-09T06:27:52.201Z,62.40
2022-09-09T06:30:20.438Z,62.23
2022-09-09T06:32:48.615Z,62.29
2022-09-09T06:35:16.749Z,62.53
2022-09-09T06:37:47.245Z,62.73
2022-09-09T06:40:15.224Z,62.24
2022-09-09T06:42:43.259Z,62.80
2022-09-09T06:45:13.110Z,62.58
2022-09-09T06:47:41.659Z,62.77
2022-09-09T06:50:11.295Z,62.90
2022-09-09T06:52:39.473Z,62.80
2022-09-09T06:55:08.984Z,63.08
2022-09-09T06:57:37.842Z,63.01
2022-09-09T07:00:07.344Z,63.26
2022-09-09T07:02:40.177Z,63.47
2022-09-09T07:05:09.215Z,63.49
2022-09-09T07:07:37.701Z,63.52
2022-09-09T07:10:06.594Z,63.37
2022-09-09T07:12:34.495Z,63.37
2022-09-09T07:15:02.414Z,63.58
2022-09-09T07:17:31.149Z,63.59
2022-09-09T07:20:00.827Z,63.45
2022-09-09T07:22:29.959Z,63.51
2022-09-09T07:24:58.008Z,63.50
2022-09-09T07:27:25.973Z,63.86
2022-09-09T07:29:57.686Z,63.81
2022-09-09T07:32:26.548Z,63.87
2022-09-09T07:34:54.540Z,63.78
2022-09-09T07:37:23.930Z,64.04
2022-09-09T07:39:52.218Z,64.13
2022-09-09T07:42:20.474Z,64.01
2022-09-09T07:44:48.497Z,64.15
2022-09-09T07:47:16.498Z,64.05
2022-09-09T07:49:44.527Z,64.02
2022-09-09T07:52:14.838Z,63.83
2022-09-09T07:54:46.782Z,64.21
2022-09-09T07:57:16.361Z,63.82
2022-09-09T07:59:45.580Z,63.79
2022-09-09T08:02:13.528Z,64.12
2022-09-09T08:04:41.517Z,64.06
2022-09-09T08:07:09.440Z,64.09
2022-09-09T08:09:37.385Z,63.81
2022-09-09T08:12:08.035Z,64.23
2022-09-09T08:14:35.992Z,63.96
2022-09-09T08:17:03.962Z,63.87
2022-09-09T08:19:34.188Z,64.03
2022-09-09T08:22:02.851Z,63.83
2022-09-09T08:24:30.839Z,63.89
2022-09-09T08:26:58.850Z,63.82
2022-09-09T08:29:29.367Z,63.72
2022-09-09T08:31:58.481Z,63.77
2022-09-09T08:34:27.950Z,63.77
2022-09-09T08:36:56.176Z,63.93
2022-09-09T08:39:24.352Z,63.71
2022-09-09T08:42:02.392Z,64.00
2022-09-09T08:44:38.969Z,63.54
2022-09-09T08:47:10.405Z,63.56
2022-09-09T08:49:47.665Z,63.54
2022-09-09T08:52:19.046Z,63.28
2022-09-09T08:54:52.551Z,62.87
2022-09-09T08:57:22.181Z,62.59
2022-09-09T08:59:52.003Z,62.69
2022-09-09T09:02:21.946Z,62.19
2022-09-09T09:04:57.075Z,62.19
2022-09-09T09:07:32.936Z,61.49
2022-09-09T09:10:09.093Z,61.31
2022-09-09T09:12:44.210Z,61.04
2022-09-09T09:15:18.591Z,60.92
2022-09-09T09:17:46.554Z,60.92
2022-09-09T09:20:16.089Z,60.51
2022-09-09T09:22:49.463Z,60.35
2022-09-09T09:25:19.302Z,59.96
2022-09-09T09:27:51.782Z,60.06
2022-09-09T09:30:27.140Z,59.89
2022-09-09T09:32:58.017Z,59.77
2022-09-09T09:35:26.110Z,59.86
2022-09-09T09:40:51.190Z,60.29
2022-09-09T09:43:22.154Z,60.95
2022-09-09T09:46:13.993Z,61.18
2022-09-09T09:48:39.428Z,61.39
2022-09-09T09:51:10.713Z,61.29
2022-09-09T09:53:39.462Z,61.21
2022-09-09T09:56:08.712Z,61.18
2022-09-09T09:58:51.926Z,61.27
2022-09-09T10:01:26.128Z,60.64
2022-09-09T10:03:54.333Z,60.67
2022-09-09T10:06:32.272Z,60.01
2022-09-09T10:09:00.275Z,60.01
2022-09-09T10:11:43.650Z,59.69
2022-09-09T10:14:18.976Z,59.36
2022-09-09T10:16:58.751Z,59.25
2022-09-09T10:19:32.303Z,58.94
2022-09-09T10:22:18.543Z,59.35
2022-09-09T10:25:03.210Z,58.25
2022-09-09T10:27:34.628Z,57.39
2022-09-09T10:30:14.468Z,57.18
2022-09-09T10:32:52.011Z,57.26
2022-09-09T10:35:37.938Z,56.84
2022-09-09T10:38:13.287Z,56.75
2022-09-09T10:40:45.505Z,56.68
2022-09-09T10:43:19.507Z,56.37
2022-09-09T10:45:53.059Z,56.19
2022-09-09T10:48:33.503Z,55.59
2022-09-09T10:51:09.294Z,55.31
2022-09-09T10:53:41.464Z,54.50
2022-09-09T10:56:10.594Z,55.03
2022-09-09T10:58:42.407Z,54.68
2022-09-09T11:01:15.216Z,54.76
2022-09-09T11:03:44.789Z,55.10
2022-09-09T11:06:15.491Z,54.62
2022-09-09T11:08:43.445Z,53.82
2022-09-09T11:11:14.621Z,53.80
2022-09-09T11:13:45.384Z,53.85
2022-09-09T11:16:20.243Z,53.84
2022-09-09T11:18:50.328Z,54.03
2022-09-09T11:21:21.266Z,53.46
2022-09-09T11:23:51.738Z,54.30
2022-09-09T11:26:21.361Z,55.16
2022-09-09T11:29:02.823Z,53.22
2022-09-09T11:31:45.396Z,52.64
2022-09-09T11:34:24.385Z,52.48
2022-09-09T11:36:58.550Z,52.80
2022-09-09T11:39:41.792Z,54.00
2022-09-09T11:42:10.356Z,55.45
2022-09-09T11:47:19.048Z,52.45
2022-09-09T11:49:49.579Z,52.24
2022-09-09T11:52:24.030Z,53.62
2022-09-09T11:54:52.005Z,54.35
2022-09-09T11:57:26.929Z,53.54
2022-09-09T11:59:55.592Z,52.80
2022-09-09T12:02:25.569Z,52.31
2022-09-09T12:05:00.182Z,50.98
2022-09-09T12:07:34.039Z,50.28
2022-09-09T12:10:03.423Z,50.14
2022-09-09T12:12:33.130Z,50.89
2022-09-09T12:15:03.212Z,51.00
2022-09-09T12:17:32.418Z,51.16
2022-09-09T12:20:08.576Z,51.35
2022-09-09T12:22:40.466Z,51.83
2022-09-09T12:25:15.258Z,53.61
2022-09-09T12:27:44.861Z,55.58
2022-09-09T12:30:14.408Z,54.50
2022-09-09T12:32:42.423Z,52.40
2022-09-09T12:35:14.044Z,51.74
2022-09-09T12:37:42.585Z,51.39
2022-09-09T12:40:23.921Z,52.08
2022-09-09T12:42:52.104Z,52.71
2022-09-09T12:45:21.418Z,53.80
2022-09-09T12:47:50.690Z,55.78
2022-09-09T12:50:21.065Z,58.28
2022-09-09T12:52:49.327Z,56.31
2022-09-09T12:55:19.882Z,53.76
2022-09-09T12:57:48.102Z,52.11
2022-09-09T13:00:18.492Z,50.13
2022-09-09T13:02:51.353Z,50.32
2022-09-09T13:05:22.629Z,51.30
2022-09-09T13:07:50.553Z,52.98
2022-09-09T13:10:36.287Z,53.87
2022-09-09T13:13:15.534Z,55.43
2022-09-09T13:15:50.928Z,56.57
2022-09-09T13:18:19.934Z,57.62
2022-09-09T13:20:50.187Z,58.60
2022-09-09T13:23:18.198Z,59.44
2022-09-09T13:25:55.444Z,59.98
2022-09-09T13:28:24.273Z,60.40
2022-09-09T13:31:03.317Z,61.02
2022-09-09T13:33:35.740Z,60.38
2022-09-09T13:36:06.274Z,59.98
2022-09-09T13:38:35.738Z,59.65
2022-09-09T13:41:05.475Z,59.22
2022-09-09T13:43:35.767Z,59.18
2022-09-09T13:46:04.601Z,59.15
2022-09-09T13:48:32.855Z,59.96
2022-09-09T13:51:09.721Z,60.39
2022-09-09T13:53:37.712Z,61.27
2022-09-09T13:56:05.790Z,61.16
2022-09-09T13:58:34.161Z,61.82
2022-09-09T14:01:02.209Z,62.19
2022-09-09T14:03:30.281Z,62.67
2022-09-09T14:05:58.872Z,62.86
2022-09-09T14:08:29.387Z,62.37
2022-09-09T14:10:59.379Z,62.35
2022-09-09T14:13:27.510Z,62.34
2022-09-09T14:15:55.460Z,62.00
2022-09-09T14:18:24.341Z,61.86
2022-09-09T14:20:52.374Z,62.21
2022-09-09T14:23:20.662Z,62.57
2022-09-09T14:25:50.102Z,62.58
2022-09-09T14:28:20.480Z,62.80
2022-09-09T14:30:53.981Z,63.13
2022-09-09T14:33:22.241Z,63.21
2022-09-09T14:35:50.150Z,63.46
2022-09-09T14:38:19.203Z,63.79
2022-09-09T14:40:47.835Z,63.76
2022-09-09T14:43:17.375Z,63.79
2022-09-09T14:45:45.415Z,63.91
2022-09-09T14:48:14.122Z,63.86
2022-09-09T14:50:42.070Z,63.80
2022-09-09T14:53:11.021Z,63.77
2022-09-09T14:55:39.054Z,63.72
2022-09-09T14:58:07.533Z,63.52
2022-09-09T15:00:39.158Z,63.69
2022-09-09T15:03:07.295Z,63.57
2022-09-09T15:05:35.674Z,63.00
2022-09-09T15:08:03.991Z,62.97
2022-09-09T15:10:32.533Z,62.78
2022-09-09T15:13:00.438Z,62.62
2022-09-09T15:15:28.938Z,62.92
2022-09-09T15:17:58.293Z,63.16
2022-09-09T15:20:26.263Z,62.71
2022-09-09T15:22:54.129Z,63.02
2022-09-09T15:25:22.978Z,62.80
2022-09-09T15:27:50.952Z,62.57
2022-09-09T15:30:19.151Z,62.82
2022-09-09T15:32:48.829Z,62.57
2022-09-09T15:35:18.678Z,62.05
2022-09-09T15:37:47.141Z,61.41
2022-09-09T15:40:15.225Z,61.47
2022-09-09T15:42:43.877Z,60.97
2022-09-09T15:45:13.586Z,60.91
2022-09-09T15:47:41.600Z,60.83
2022-09-09T15:50:09.725Z,60.58
2022-09-09T15:52:43.328Z,60.65
2022-09-09T15:55:11.410Z,60.44
2022-09-09T15:57:39.319Z,60.44
2022-09-09T16:00:09.902Z,60.10
2022-09-09T16:02:38.107Z,59.88
2022-09-09T16:05:07.095Z,59.85
2022-09-09T16:07:36.908Z,59.17
2022-09-09T16:10:07.057Z,59.53
2022-09-09T16:12:35.009Z,59.59
2022-09-09T16:15:03.410Z,59.65
2022-09-09T16:17:31.353Z,59.65
2022-09-09T16:19:59.445Z,59.39
2022-09-09T16:22:27.405Z,59.16
2022-09-09T16:24:55.479Z,59.27
2022-09-09T16:27:24.969Z,59.06
2022-09-09T16:29:53.022Z,58.69
2022-09-09T16:32:21.220Z,58.43
2022-09-09T16:34:52.337Z,58.40
2022-09-09T16:37:20.444Z,58.67
2022-09-09T16:39:48.435Z,59.55
2022-09-09T16:42:17.904Z,58.09
2022-09-09T16:44:47.404Z,56.73
2022-09-09T16:47:15.326Z,55.47
2022-09-09T16:49:43.253Z,54.45
2022-09-09T16:52:11.431Z,54.45
2022-09-09T16:54:39.306Z,53.67
2022-09-09T16:57:07.760Z,53.86
2022-09-09T16:59:37.955Z,54.20
2022-09-09T17:02:08.422Z,54.33
2022-09-09T17:04:36.561Z,55.21
2022-09-09T17:07:04.466Z,55.36
2022-09-09T17:09:32.538Z,55.35
2022-09-09T17:12:00.986Z,55.33
2022-09-09T17:14:32.184Z,55.75
2022-09-09T17:17:14.023Z,56.12
2022-09-09T17:19:51.496Z,56.09
2022-09-09T17:22:19.449Z,56.18
2022-09-09T17:24:47.614Z,56.39
2022-09-09T17:27:15.540Z,56.61
2022-09-09T17:29:43.861Z,56.59
2022-09-09T17:32:11.766Z,56.56
2022-09-09T17:34:39.995Z,57.18
2022-09-09T17:37:09.363Z,57.29
2022-09-09T17:39:37.742Z,57.47
2022-09-09T17:42:05.855Z,57.49
2022-09-09T17:44:34.312Z,57.67
2022-09-09T17:47:04.737Z,57.80
2022-09-09T17:49:32.625Z,58.13
2022-09-09T17:52:00.575Z,58.01
2022-09-09T17:54:30.001Z,57.80
2022-09-09T17:56:58.653Z,58.07
2022-09-09T17:59:26.558Z,57.74
2022-09-09T18:01:54.551Z,57.90
2022-09-09T18:04:22.688Z,58.20
2022-09-09T18:06:51.533Z,58.34
2022-09-09T18:09:20.739Z,58.32
2022-09-09T18:11:51.053Z,58.50
2022-09-09T18:14:23.021Z,58.67
2022-09-09T18:16:51.189Z,58.60
2022-09-09T18:19:20.724Z,58.85
2022-09-09T18:21:49.219Z,58.87
2022-09-09T18:24:18.029Z,58.79
2022-09-09T18:26:48.158Z,58.91
2022-09-09T18:29:19.979Z,59.26
2022-09-09T18:31:48.310Z,59.36
2022-09-09T18:34:17.123Z,59.40
2022-09-09T18:36:45.947Z,59.38
2022-09-09T18:39:14.257Z,59.54
2022-09-09T18:41:42.931Z,59.57
2022-09-09T18:44:13.638Z,59.82
2022-09-09T18:46:43.004Z,59.74
2022-09-09T18:49:11.586Z,60.09
2022-09-09T18:51:41.134Z,59.87
2022-09-09T18:54:10.621Z,60.10
2022-09-09T18:56:38.743Z,60.20
2022-09-09T18:59:07.503Z,60.48
2022-09-09T19:01:36.505Z,60.51
2022-09-09T19:04:06.267Z,60.63
2022-09-09T19:06:35.253Z,60.58
2022-09-09T19:09:04.975Z,60.76
2022-09-09T19:11:33.954Z,60.89
2022-09-09T19:14:03.311Z,60.67
2022-09-09T19:16:31.945Z,60.73
2022-09-09T19:19:01.141Z,60.86
2022-09-09T19:21:31.358Z,61.04
2022-09-09T19:24:00.969Z,61.03
2022-09-09T19:26:29.725Z,61.15
2022-09-09T19:28:59.133Z,61.10
2022-09-09T19:31:28.064Z,61.37
2022-09-09T19:33:56.702Z,61.35
2022-09-09T19:36:25.045Z,61.25
2022-09-09T19:38:55.902Z,61.37
2022-09-09T19:41:25.553Z,61.47
2022-09-09T19:43:54.962Z,61.57
2022-09-09T19:46:22.890Z,61.38
2022-09-09T19:48:50.838Z,61.45
2022-09-09T19:51:19.706Z,61.58
2022-09-09T19:53:48.779Z,61.52
2022-09-09T19:56:18.770Z,61.64
2022-09-09T19:58:47.369Z,61.84
2022-09-09T20:01:15.873Z,61.52
2022-09-09T20:03:44.785Z,61.78
2022-09-09T20:06:13.967Z,61.59
2022-09-09T20:08:41.961Z,61.83
2022-09-09T20:11:09.865Z,61.64
2022-09-09T20:13:39.776Z,61.99
2022-09-09T20:16:08.756Z,61.87
2022-09-09T20:18:38.354Z,62.04
2022-09-09T20:21:07.425Z,61.96
2022-09-09T20:23:35.431Z,61.93
2022-09-09T20:26:05.207Z,61.94
2022-09-09T20:28:37.597Z,62.15
2022-09-09T20:31:07.808Z,62.35
2022-09-09T20:33:35.840Z,61.96
2022-09-09T20:36:11.567Z,62.22
2022-09-09T20:38:42.609Z,62.08
2022-09-09T20:41:14.365Z,62.41
2022-09-09T20:43:48.251Z,62.34
2022-09-09T20:46:18.998Z,62.13
2022-09-09T20:48:47.081Z,62.36
2022-09-09T20:51:16.320Z,62.19
2022-09-09T20:53:44.169Z,62.36
2022-09-09T20:56:12.276Z,62.25
2022-09-09T20:58:40.366Z,62.23
2022-09-09T21:01:09.306Z,62.23
2022-09-09T21:03:38.620Z,62.34
2022-09-09T21:06:07.105Z,62.25
2022-09-09T21:08:38.701Z,62.18
2022-09-09T21:11:06.939Z,62.43
2022-09-09T21:13:36.310Z,62.36
2022-09-09T21:16:04.730Z,62.64
2022-09-09T21:18:32.708Z,62.19
2022-09-09T21:21:02.489Z,62.43
2022-09-09T21:23:31.390Z,62.39
2022-09-09T21:25:59.300Z,62.22
2022-09-09T21:28:28.493Z,62.21
2022-09-09T21:30:56.536Z,62.36
2022-09-09T21:33:28.048Z,62.26
2022-09-09T21:36:02.389Z,62.49
2022-09-09T21:38:32.053Z,62.46
2022-09-09T21:41:03.809Z,62.34
2022-09-09T21:43:31.819Z,62.29
2022-09-09T21:46:02.546Z,62.50
2022-09-09T21:48:31.608Z,62.42
2022-09-09T21:51:03.591Z,62.65
2022-09-09T21:53:33.024Z,62.30
2022-09-09T21:56:04.856Z,62.36
2022-09-09T21:58:32.849Z,62.17
2022-09-09T22:01:00.765Z,62.08
2022-09-09T22:03:28.705Z,62.04
2022-09-09T22:05:56.654Z,62.21
2022-09-09T22:08:24.537Z,61.89
2022-09-09T22:10:53.833Z,62.26
2022-09-09T22:13:22.312Z,62.34
2022-09-09T22:15:51.055Z,62.21
2022-09-09T22:18:19.342Z,62.12
2022-09-09T22:20:48.044Z,62.08
2022-09-09T22:23:16.521Z,62.08
2022-09-09T22:25:44.754Z,62.19
2022-09-09T22:28:14.034Z,62.47
2022-09-09T22:30:41.944Z,62.15
2022-09-09T22:33:09.908Z,62.32
2022-09-09T22:35:42.362Z,61.85
2022-09-09T22:38:11.215Z,62.09
2022-09-09T22:40:39.183Z,61.79
2022-09-09T22:43:08.041Z,62.21
2022-09-09T22:45:37.330Z,61.99
2022-09-09T22:48:06.006Z,61.89
2022-09-09T22:50:37.913Z,61.83
2022-09-09T22:53:13.245Z,61.68
2022-09-09T22:55:41.164Z,61.76
2022-09-09T22:58:09.037Z,61.34
2022-09-09T23:00:40.158Z,61.59
2022-09-09T23:03:08.311Z,61.50
2022-09-09T23:05:37.293Z,61.74
2022-09-09T23:08:05.240Z,61.78
2022-09-09T23:10:33.812Z,61.80
2022-09-09T23:13:01.726Z,61.43
2022-09-09T23:15:31.351Z,61.43
2022-09-09T23:18:00.720Z,61.59
2022-09-09T23:20:28.939Z,61.69
2022-09-09T23:22:57.079Z,61.48
2022-09-09T23:25:25.258Z,61.86
2022-09-09T23:27:53.457Z,61.79
2022-09-09T23:30:21.572Z,61.61
2022-09-09T23:32:50.054Z,61.91
2022-09-09T23:35:19.446Z,61.47
2022-09-09T23:37:48.050Z,61.25
2022-09-09T23:40:16.126Z,61.76
2022-09-09T23:42:47.574Z,61.94
2022-09-09T23:45:15.900Z,61.64
2022-09-09T23:47:43.758Z,61.77
2022-09-09T23:50:11.664Z,61.98
2022-09-09T23:52:41.725Z,62.07
2022-09-09T23:55:09.774Z,61.87
2022-09-09T23:57:37.700Z,62.07
